createdAt,value
2022-07-25T00:01:49.624Z,63.68
2022-07-25T00:03:58.410Z,63.54
2022-07-25T00:06:06.441Z,64.10
2022-07-25T00:08:22.120Z,64.48
2022-07-25T00:10:30.306Z,64.05
2022-07-25T00:12:38.735Z,64.24
2022-07-25T00:14:50.993Z,64.73
2022-07-25T00:16:59.230Z,65.08
2022-07-25T00:19:07.529Z,64.39
2022-07-25T00:21:16.134Z,64.75
2022-07-25T00:23:24.365Z,64.95
2022-07-25T00:25:33.262Z,64.62
2022-07-25T00:27:41.566Z,64.82
2022-07-25T00:29:52.462Z,65.04
2022-07-25T00:32:00.954Z,65.37
2022-07-25T00:34:09.514Z,65.85
2022-07-25T00:36:18.130Z,65.26
2022-07-25T00:38:26.351Z,65.61
2022-07-25T00:40:35.029Z,65.57
2022-07-25T00:42:43.263Z,64.88
2022-07-25T00:44:54.411Z,65.20
2022-07-25T00:47:03.303Z,65.35
2022-07-25T00:49:12.143Z,65.58
2022-07-25T00:51:20.971Z,66.10
2022-07-25T00:53:29.690Z,65.94
2022-07-25T00:55:38.981Z,66.34
2022-07-25T00:57:48.458Z,67.30
2022-07-25T00:59:59.459Z,67.56
2022-07-25T01:02:08.069Z,67.68
2022-07-25T01:04:17.989Z,68.08
2022-07-25T01:06:26.942Z,68.84
2022-07-25T01:08:35.834Z,69.60
2022-07-25T01:10:44.248Z,69.94
2022-07-25T01:12:54.970Z,70.34
2022-07-25T01:15:05.874Z,70.71
2022-07-25T01:17:14.002Z,71.17
2022-07-25T01:19:22.135Z,71.76
2022-07-25T01:21:33.056Z,71.94
2022-07-25T01:23:41.380Z,72.48
2022-07-25T01:25:49.355Z,72.51
2022-07-25T01:27:58.332Z,72.55
2022-07-25T01:30:09.369Z,72.52
2022-07-25T01:32:17.966Z,73.46
2022-07-25T01:34:25.967Z,73.49
2022-07-25T01:36:37.243Z,73.89
2022-07-25T01:38:45.619Z,74.08
2022-07-25T01:40:53.888Z,74.06
2022-07-25T01:43:02.028Z,74.52
2022-07-25T01:45:11.900Z,75.19
2022-07-25T01:47:20.078Z,75.74
2022-07-25T01:49:28.289Z,75.66
2022-07-25T01:51:40.986Z,75.46
2022-07-25T01:53:51.220Z,75.68
2022-07-25T01:56:00.452Z,75.45
2022-07-25T01:58:10.862Z,75.94
2022-07-25T02:00:19.722Z,76.19
2022-07-25T02:02:27.761Z,76.14
2022-07-25T02:04:37.642Z,76.03
2022-07-25T02:06:49.273Z,75.45
2022-07-25T02:08:57.089Z,75.60
2022-07-25T02:11:05.669Z,75.55
2022-07-25T02:13:13.769Z,74.73
2022-07-25T02:15:22.762Z,74.48
2022-07-25T02:17:33.009Z,73.96
2022-07-25T02:19:41.114Z,73.95
2022-07-25T02:21:51.609Z,73.66
2022-07-25T02:24:01.357Z,73.08
2022-07-25T02:26:09.589Z,73.13
2022-07-25T02:28:21.353Z,73.40
2022-07-25T02:30:29.780Z,73.41
2022-07-25T02:32:37.686Z,73.69
2022-07-25T02:34:45.642Z,73.33
2022-07-25T02:36:58.398Z,73.51
2022-07-25T02:39:07.561Z,73.74
2022-07-25T02:41:15.802Z,73.57
2022-07-25T02:43:24.034Z,73.91
2022-07-25T02:45:33.551Z,73.36
2022-07-25T02:47:43.827Z,73.09
2022-07-25T02:49:51.728Z,72.88
2022-07-25T02:52:03.778Z,72.26
2022-07-25T02:54:12.637Z,72.73
2022-07-25T02:56:21.426Z,72.99
2022-07-25T02:58:30.691Z,72.95
2022-07-25T03:00:39.062Z,73.34
2022-07-25T03:02:47.430Z,73.10
2022-07-25T03:04:55.409Z,73.08
2022-07-25T03:07:05.892Z,72.69
2022-07-25T03:09:14.055Z,73.18
2022-07-25T03:11:22.962Z,73.38
2022-07-25T03:13:30.814Z,73.50
2022-07-25T03:15:38.888Z,73.63
2022-07-25T03:17:47.880Z,73.26
2022-07-25T03:19:55.752Z,73.07
2022-07-25T03:22:06.242Z,73.15
2022-07-25T03:24:14.142Z,73.80
2022-07-25T03:26:24.012Z,73.69
2022-07-25T03:28:32.977Z,73.59
2022-07-25T03:30:41.167Z,73.86
2022-07-25T03:32:48.997Z,74.50
2022-07-25T03:34:57.308Z,74.16
2022-07-25T03:37:08.487Z,74.67
2022-07-25T03:39:18.331Z,74.33
2022-07-25T03:41:27.943Z,74.66
2022-07-25T03:43:36.422Z,75.29
2022-07-25T03:45:44.519Z,75.70
2022-07-25T03:47:52.507Z,76.15
2022-07-25T03:50:00.550Z,76.09
2022-07-25T03:52:11.086Z,76.30
2022-07-25T03:54:18.862Z,76.43
2022-07-25T03:56:26.747Z,76.94
2022-07-25T03:58:34.708Z,76.26
2022-07-25T04:00:42.602Z,76.08
2022-07-25T04:02:50.602Z,75.93
2022-07-25T04:04:58.428Z,76.12
2022-07-25T04:07:06.361Z,76.34
2022-07-25T04:09:17.241Z,76.46
2022-07-25T04:11:25.195Z,76.05
2022-07-25T04:13:33.062Z,75.82
2022-07-25T04:15:40.903Z,76.16
2022-07-25T04:17:48.696Z,76.46
2022-07-25T04:19:56.763Z,76.66
2022-07-25T04:22:04.786Z,76.81
2022-07-25T04:24:12.893Z,77.05
2022-07-25T04:26:24.241Z,76.32
2022-07-25T04:28:32.865Z,74.25
2022-07-25T04:30:41.551Z,70.92
2022-07-25T04:32:49.528Z,67.90
2022-07-25T04:34:57.574Z,64.65
2022-07-25T04:37:05.446Z,62.81
2022-07-25T04:39:13.331Z,60.38
2022-07-25T04:41:24.449Z,58.53
2022-07-25T04:43:32.950Z,56.43
2022-07-25T04:45:44.155Z,53.18
2022-07-25T04:47:52.445Z,51.84
2022-07-25T04:50:01.288Z,48.51
2022-07-25T04:52:09.594Z,50.31
2022-07-25T04:54:17.414Z,52.04
2022-07-25T04:56:27.952Z,50.99
2022-07-25T04:58:36.388Z,48.57
2022-07-25T05:00:44.422Z,47.12
2022-07-25T05:02:52.437Z,44.88
2022-07-25T05:05:03.122Z,45.74
2022-07-25T05:07:11.314Z,45.97
2022-07-25T05:09:19.537Z,45.81
2022-07-25T05:11:31.127Z,45.58
2022-07-25T05:13:41.600Z,46.98
2022-07-25T05:15:49.563Z,45.12
2022-07-25T05:18:01.673Z,46.66
2022-07-25T05:20:18.075Z,47.69
2022-07-25T05:22:28.500Z,48.32
2022-07-25T05:24:50.979Z,45.78
2022-07-25T05:27:02.254Z,42.76
2022-07-25T05:29:10.394Z,41.67
2022-07-25T05:31:18.334Z,41.47
2022-07-25T05:33:26.705Z,43.33
2022-07-25T05:35:34.629Z,43.56
2022-07-25T05:37:42.470Z,42.53
2022-07-25T05:39:51.647Z,42.37
2022-07-25T05:42:03.390Z,46.39
2022-07-25T05:44:11.554Z,43.87
2022-07-25T05:46:22.192Z,45.78
2022-07-25T05:48:33.990Z,44.40
2022-07-25T05:50:41.962Z,45.86
2022-07-25T05:52:51.551Z,43.32
2022-07-25T05:55:01.777Z,41.60
2022-07-25T05:57:12.339Z,39.27
2022-07-25T05:59:20.616Z,42.05
2022-07-25T06:01:28.683Z,42.24
2022-07-25T06:03:37.211Z,42.64
2022-07-25T06:05:45.084Z,40.52
2022-07-25T06:07:53.215Z,37.54
2022-07-25T06:10:01.512Z,38.82
2022-07-25T06:12:14.160Z,39.11
2022-07-25T06:14:22.091Z,35.93
2022-07-25T06:16:33.665Z,37.06
2022-07-25T06:18:41.610Z,40.05
2022-07-25T06:20:49.813Z,37.97
2022-07-25T06:22:57.988Z,37.78
2022-07-25T06:25:08.662Z,38.27
2022-07-25T06:27:23.040Z,34.45
2022-07-25T06:29:32.963Z,37.20
2022-07-25T06:31:40.927Z,34.37
2022-07-25T06:33:51.414Z,36.50
2022-07-25T06:35:59.447Z,39.91
2022-07-25T06:38:10.507Z,40.64
2022-07-25T06:40:20.769Z,38.35
2022-07-25T06:42:33.423Z,39.57
2022-07-25T06:44:41.388Z,36.45
2022-07-25T06:46:49.253Z,32.97
2022-07-25T06:48:59.957Z,31.62
2022-07-25T06:51:08.932Z,31.68
2022-07-25T06:53:19.288Z,29.79
2022-07-25T06:55:27.402Z,27.10
2022-07-25T06:57:39.311Z,27.53
2022-07-25T06:59:47.974Z,28.50
2022-07-25T07:01:57.871Z,26.94
2022-07-25T07:04:09.072Z,24.82
2022-07-25T07:06:17.548Z,26.12
2022-07-25T07:08:25.605Z,26.28
2022-07-25T07:10:34.001Z,24.48
2022-07-25T07:12:44.833Z,24.05
2022-07-25T07:14:52.702Z,23.06
2022-07-25T07:17:01.911Z,25.09
2022-07-25T07:19:15.492Z,22.95
2022-07-25T07:21:23.493Z,22.51
2022-07-25T07:23:31.343Z,23.03
2022-07-25T07:25:40.894Z,23.74
2022-07-25T07:27:54.458Z,22.08
2022-07-25T07:30:02.463Z,22.91
2022-07-25T07:32:12.686Z,24.02
2022-07-25T07:34:22.993Z,22.69
2022-07-25T07:38:55.297Z,22.95
2022-07-25T07:41:03.211Z,22.35
2022-07-25T07:43:13.781Z,21.54
2022-07-25T07:45:23.444Z,24.46
2022-07-25T07:47:31.349Z,23.18
2022-07-25T07:49:39.243Z,24.61
2022-07-25T07:51:47.133Z,25.60
2022-07-25T07:54:07.454Z,24.17
2022-07-25T07:56:15.294Z,23.19
2022-07-25T07:58:25.953Z,25.56
2022-07-25T08:00:36.254Z,24.56
2022-07-25T08:02:49.082Z,23.02
2022-07-25T08:04:57.014Z,22.07
2022-07-25T08:07:04.959Z,22.69
2022-07-25T08:09:12.958Z,23.35
2022-07-25T08:11:20.955Z,26.73
2022-07-25T08:13:34.114Z,25.59
2022-07-25T08:15:42.203Z,25.46
2022-07-25T08:17:51.978Z,26.20
2022-07-25T08:20:14.677Z,26.37
2022-07-25T08:22:27.846Z,27.17
2022-07-25T08:24:35.771Z,26.46
2022-07-25T08:26:46.204Z,24.88
2022-07-25T08:29:17.575Z,26.48
2022-07-25T08:31:25.481Z,28.93
2022-07-25T08:33:33.465Z,28.95
2022-07-25T08:35:42.032Z,28.01
2022-07-25T08:37:51.774Z,29.54
2022-07-25T08:40:02.620Z,30.53
2022-07-25T08:42:11.737Z,31.18
2022-07-25T08:44:23.355Z,33.01
2022-07-25T08:46:32.751Z,34.35
2022-07-25T08:48:41.573Z,34.68
2022-07-25T08:50:51.458Z,35.67
2022-07-25T08:53:34.926Z,34.70
2022-07-25T08:55:28.952Z,34.60
2022-07-25T08:57:38.621Z,32.06
2022-07-25T08:59:51.638Z,31.35
2022-07-25T09:02:07.217Z,31.76
2022-07-25T09:04:17.192Z,30.76
2022-07-25T09:06:26.065Z,28.47
2022-07-25T09:08:34.162Z,27.83
2022-07-25T09:10:43.568Z,29.17
2022-07-25T09:12:56.456Z,26.29
2022-07-25T09:15:09.289Z,24.67
2022-07-25T09:17:22.331Z,23.51
2022-07-25T09:19:31.952Z,21.05
2022-07-25T09:21:39.965Z,21.76
2022-07-25T09:23:49.802Z,19.56
2022-07-25T09:26:05.483Z,19.83
2022-07-25T09:28:18.260Z,19.41
2022-07-25T09:30:29.272Z,18.94
2022-07-25T09:32:37.176Z,19.18
2022-07-25T09:34:47.757Z,18.74
2022-07-25T09:36:56.539Z,19.33
2022-07-25T09:39:06.663Z,19.10
2022-07-25T09:41:14.593Z,19.69
2022-07-25T09:43:24.669Z,18.86
2022-07-25T09:45:37.073Z,18.33
2022-07-25T09:47:57.437Z,19.46
2022-07-25T09:50:07.869Z,18.89
2022-07-25T09:52:17.409Z,18.78
2022-07-25T09:54:25.346Z,18.52
2022-07-25T09:56:33.231Z,18.07
2022-07-25T09:58:41.446Z,19.08
2022-07-25T10:00:53.439Z,19.40
2022-07-25T10:03:21.134Z,20.12
2022-07-25T10:05:43.094Z,20.15
2022-07-25T10:07:53.742Z,18.78
2022-07-25T10:10:02.915Z,19.00
2022-07-25T10:12:13.370Z,20.51
2022-07-25T10:14:21.306Z,19.24
2022-07-25T10:16:31.929Z,19.54
2022-07-25T10:18:53.538Z,18.43
2022-07-25T10:21:25.551Z,19.92
2022-07-25T10:23:34.525Z,20.72
2022-07-25T10:25:47.104Z,19.71
2022-07-25T10:28:04.191Z,18.61
2022-07-25T10:30:25.053Z,21.82
2022-07-25T10:32:38.810Z,20.62
2022-07-25T10:34:55.318Z,20.43
2022-07-25T10:37:14.810Z,19.55
2022-07-25T10:39:25.193Z,19.91
2022-07-25T10:41:38.386Z,19.91
2022-07-25T10:43:49.662Z,21.25
2022-07-25T10:46:01.188Z,20.08
2022-07-25T10:48:23.491Z,21.89
2022-07-25T10:50:54.459Z,22.31
2022-07-25T10:53:09.287Z,22.10
2022-07-25T10:55:26.604Z,23.33
2022-07-25T10:57:34.682Z,24.07
2022-07-25T10:59:42.971Z,24.43
2022-07-25T11:01:55.091Z,23.10
2022-07-25T11:04:17.357Z,25.39
2022-07-25T11:06:38.316Z,22.62
2022-07-25T11:08:47.353Z,22.22
2022-07-25T11:10:55.909Z,22.42
2022-07-25T11:13:04.012Z,23.89
2022-07-25T11:15:17.202Z,25.58
2022-07-25T11:17:27.296Z,27.41
2022-07-25T11:19:38.074Z,27.80
2022-07-25T11:21:48.712Z,26.79
2022-07-25T11:24:01.855Z,25.13
2022-07-25T11:26:12.162Z,25.57
2022-07-25T11:28:20.075Z,26.98
2022-07-25T11:30:30.945Z,24.89
2022-07-25T11:32:45.175Z,26.93
2022-07-25T11:34:57.297Z,27.94
2022-07-25T11:37:10.058Z,26.57
2022-07-25T11:39:19.257Z,27.74
2022-07-25T11:41:33.578Z,29.04
2022-07-25T11:43:41.421Z,30.48
2022-07-25T11:46:00.495Z,28.89
2022-07-25T11:48:11.030Z,27.54
2022-07-25T11:50:32.629Z,29.48
2022-07-25T11:52:42.516Z,26.87
2022-07-25T11:55:00.501Z,28.66
2022-07-25T11:57:09.071Z,29.52
2022-07-25T11:59:17.162Z,27.91
2022-07-25T12:01:25.172Z,27.71
2022-07-25T12:03:42.330Z,27.93
2022-07-25T12:05:53.151Z,26.25
2022-07-25T12:08:01.944Z,25.04
2022-07-25T12:10:13.494Z,26.64
2022-07-25T12:12:23.008Z,27.10
2022-07-25T12:14:35.267Z,27.90
2022-07-25T12:16:45.377Z,27.26
2022-07-25T12:18:54.408Z,29.23
2022-07-25T12:21:05.375Z,26.49
2022-07-25T12:23:14.790Z,26.40
2022-07-25T12:25:26.328Z,26.45
2022-07-25T12:27:39.328Z,29.72
2022-07-25T12:29:50.076Z,29.10
2022-07-25T12:31:58.263Z,26.84
2022-07-25T12:34:08.543Z,26.58
2022-07-25T12:36:22.587Z,27.53
2022-07-25T12:38:30.460Z,27.65
2022-07-25T12:40:41.417Z,27.92
2022-07-25T12:42:51.780Z,28.67
2022-07-25T12:44:59.660Z,28.43
2022-07-25T12:47:07.617Z,27.02
2022-07-25T12:49:15.910Z,29.86
2022-07-25T12:51:27.101Z,26.78
2022-07-25T12:53:37.860Z,27.07
2022-07-25T12:55:49.781Z,27.24
2022-07-25T12:57:58.225Z,28.08
2022-07-25T13:00:08.828Z,28.70
2022-07-25T13:02:17.565Z,27.52
2022-07-25T13:04:26.196Z,28.35
2022-07-25T13:06:38.759Z,28.66
2022-07-25T13:08:47.163Z,28.64
2022-07-25T13:10:55.776Z,28.75
2022-07-25T13:13:03.824Z,29.63
2022-07-25T13:15:13.582Z,28.63
2022-07-25T13:17:27.247Z,29.40
2022-07-25T13:19:35.542Z,28.93
2022-07-25T13:21:46.970Z,29.41
2022-07-25T13:23:54.890Z,30.96
2022-07-25T13:26:03.155Z,29.13
2022-07-25T13:28:11.312Z,29.78
2022-07-25T13:30:19.768Z,28.05
2022-07-25T13:32:28.610Z,27.36
2022-07-25T13:34:36.871Z,27.53
2022-07-25T13:36:47.946Z,26.54
2022-07-25T13:38:59.318Z,27.80
2022-07-25T13:41:07.410Z,27.94
2022-07-25T13:43:16.507Z,28.52
2022-07-25T13:45:27.487Z,29.03
2022-07-25T13:47:36.315Z,30.01
2022-07-25T13:49:45.643Z,31.34
2022-07-25T13:51:56.136Z,31.31
2022-07-25T13:54:05.029Z,30.77
2022-07-25T13:56:14.580Z,29.09
2022-07-25T13:58:22.550Z,31.18
2022-07-25T14:00:30.653Z,30.85
2022-07-25T14:02:38.603Z,30.94
2022-07-25T14:04:49.189Z,27.16
2022-07-25T14:06:59.673Z,28.55
2022-07-25T14:09:08.099Z,33.94
2022-07-25T14:11:16.960Z,30.45
2022-07-25T14:13:24.925Z,28.84
2022-07-25T14:15:37.837Z,30.94
2022-07-25T14:17:46.111Z,29.88
2022-07-25T14:19:54.010Z,30.02
2022-07-25T14:22:06.808Z,29.40
2022-07-25T14:24:14.436Z,29.48
2022-07-25T14:26:22.588Z,30.84
2022-07-25T14:28:30.950Z,32.00
2022-07-25T14:30:38.832Z,31.08
2022-07-25T14:32:47.328Z,31.18
2022-07-25T14:34:55.387Z,32.38
2022-07-25T14:37:06.177Z,37.29
2022-07-25T14:39:15.275Z,43.20
2022-07-25T14:41:23.449Z,38.36
2022-07-25T14:43:31.934Z,36.78
2022-07-25T14:45:40.392Z,34.59
2022-07-25T14:47:48.465Z,35.25
2022-07-25T14:49:56.934Z,36.00
2022-07-25T14:52:11.439Z,35.51
2022-07-25T14:54:20.298Z,34.74
2022-07-25T14:56:28.313Z,35.85
2022-07-25T14:58:38.317Z,35.51
2022-07-25T15:00:46.533Z,34.37
2022-07-25T15:02:54.452Z,36.06
2022-07-25T15:05:02.338Z,33.22
2022-07-25T15:07:14.242Z,33.12
2022-07-25T15:09:24.454Z,31.51
2022-07-25T15:11:32.617Z,32.18
2022-07-25T15:13:40.701Z,32.16
2022-07-25T15:15:48.900Z,32.44
2022-07-25T15:17:56.762Z,32.24
2022-07-25T15:20:04.804Z,31.55
2022-07-25T15:22:15.547Z,31.41
2022-07-25T15:24:28.728Z,31.78
2022-07-25T15:26:37.270Z,31.92
2022-07-25T15:28:45.120Z,31.24
2022-07-25T15:30:53.137Z,31.61
2022-07-25T15:33:01.076Z,32.48
2022-07-25T15:35:10.204Z,32.34
2022-07-25T15:37:22.046Z,32.51
2022-07-25T15:39:30.220Z,32.17
2022-07-25T15:41:38.635Z,32.88
2022-07-25T15:43:46.520Z,33.41
2022-07-25T15:45:54.753Z,32.24
2022-07-25T15:48:03.942Z,32.71
2022-07-25T15:50:12.972Z,35.30
2022-07-25T15:52:24.755Z,35.00
2022-07-25T15:54:32.787Z,35.38
2022-07-25T15:56:40.696Z,36.84
2022-07-25T15:58:50.500Z,37.34
2022-07-25T16:00:58.414Z,37.43
2022-07-25T16:03:08.061Z,38.14
2022-07-25T16:05:18.127Z,38.31
2022-07-25T16:07:31.119Z,38.40
2022-07-25T16:09:39.996Z,38.66
2022-07-25T16:11:48.302Z,39.39
2022-07-25T16:13:56.680Z,40.04
2022-07-25T16:16:04.761Z,39.35
2022-07-25T16:18:12.713Z,39.71
2022-07-25T16:20:23.165Z,39.15
2022-07-25T16:22:33.863Z,40.13
2022-07-25T16:24:42.812Z,39.84
2022-07-25T16:26:50.951Z,40.33
2022-07-25T16:28:58.809Z,40.44
2022-07-25T16:31:07.883Z,41.48
2022-07-25T16:33:15.791Z,41.81
2022-07-25T16:35:24.406Z,41.92
2022-07-25T16:37:34.970Z,41.75
2022-07-25T16:39:44.980Z,41.85
2022-07-25T16:41:55.447Z,40.93
2022-07-25T16:44:03.445Z,41.98
2022-07-25T16:46:11.996Z,42.02
2022-07-25T16:48:19.936Z,40.86
2022-07-25T16:50:27.844Z,40.07
2022-07-25T16:52:38.492Z,40.36
2022-07-25T16:54:46.630Z,40.28
2022-07-25T16:56:57.312Z,40.96
2022-07-25T16:59:08.147Z,39.79
2022-07-25T17:01:17.259Z,39.60
2022-07-25T17:03:25.717Z,39.28
2022-07-25T17:05:33.768Z,38.78
2022-07-25T17:07:44.386Z,39.42
2022-07-25T17:09:52.323Z,38.18
2022-07-25T17:12:00.192Z,39.49
2022-07-25T17:14:09.779Z,37.42
2022-07-25T17:16:18.045Z,38.11
2022-07-25T17:18:27.656Z,38.10
2022-07-25T17:20:35.556Z,37.84
2022-07-25T17:22:46.651Z,37.70
2022-07-25T17:24:54.605Z,37.75
2022-07-25T17:27:03.543Z,36.60
2022-07-25T17:29:11.620Z,37.37
2022-07-25T17:31:19.717Z,36.26
2022-07-25T17:33:28.481Z,36.68
2022-07-25T17:35:37.829Z,37.68
2022-07-25T17:37:49.616Z,38.16
2022-07-25T17:39:57.716Z,38.23
2022-07-25T17:42:08.030Z,38.05
2022-07-25T17:44:16.773Z,38.29
2022-07-25T17:46:25.143Z,38.44
2022-07-25T17:48:35.321Z,38.24
2022-07-25T17:50:45.425Z,38.94
2022-07-25T17:53:02.430Z,37.81
2022-07-25T17:55:12.113Z,38.86
2022-07-25T17:57:20.608Z,38.31
2022-07-25T17:59:28.766Z,38.92
2022-07-25T18:01:37.225Z,39.40
2022-07-25T18:03:47.590Z,39.33
2022-07-25T18:05:55.542Z,39.48
2022-07-25T18:08:08.939Z,38.95
2022-07-25T18:10:21.288Z,39.54
2022-07-25T18:12:29.598Z,39.21
2022-07-25T18:14:37.515Z,39.34
2022-07-25T18:16:48.237Z,39.63
2022-07-25T18:18:56.194Z,39.57
2022-07-25T18:21:05.751Z,39.78
2022-07-25T18:23:16.879Z,39.77
2022-07-25T18:25:26.164Z,40.00
2022-07-25T18:27:34.298Z,40.12
2022-07-25T18:29:42.513Z,40.74
2022-07-25T18:31:51.014Z,41.79
2022-07-25T18:33:58.813Z,41.47
2022-07-25T18:36:08.559Z,42.82
2022-07-25T18:38:19.768Z,42.90
2022-07-25T18:40:29.035Z,42.91
2022-07-25T18:42:39.227Z,43.52
2022-07-25T18:44:47.522Z,42.85
2022-07-25T18:46:55.392Z,43.64
2022-07-25T18:49:05.971Z,43.98
2022-07-25T18:51:14.326Z,43.86
2022-07-25T18:53:24.789Z,44.45
2022-07-25T18:55:33.335Z,44.52
2022-07-25T18:57:41.318Z,44.83
2022-07-25T18:59:49.392Z,44.36
2022-07-25T19:01:58.095Z,43.66
2022-07-25T19:04:06.904Z,43.50
2022-07-25T19:06:15.211Z,43.74
2022-07-25T19:08:27.008Z,44.13
2022-07-25T19:10:35.428Z,44.63
2022-07-25T19:12:45.783Z,43.60
2022-07-25T19:14:53.731Z,44.09
2022-07-25T19:17:04.541Z,44.38
2022-07-25T19:19:12.877Z,44.48
2022-07-25T19:21:20.950Z,44.41
2022-07-25T19:23:31.921Z,44.79
2022-07-25T19:25:40.134Z,44.68
2022-07-25T19:27:51.352Z,44.58
2022-07-25T19:30:00.341Z,44.67
2022-07-25T19:32:09.245Z,43.42
2022-07-25T19:34:20.170Z,44.04
2022-07-25T19:36:28.019Z,44.21
2022-07-25T19:38:38.703Z,44.55
2022-07-25T19:40:46.865Z,43.94
2022-07-25T19:42:54.896Z,44.16
2022-07-25T19:45:02.892Z,44.56
2022-07-25T19:47:12.024Z,44.28
2022-07-25T19:49:41.860Z,44.38
2022-07-25T19:51:55.105Z,44.67
2022-07-25T19:54:08.444Z,45.28
2022-07-25T19:56:23.353Z,45.04
2022-07-25T19:58:34.188Z,45.45
2022-07-25T20:00:46.204Z,45.30
2022-07-25T20:02:54.956Z,45.43
2022-07-25T20:05:05.254Z,45.63
2022-07-25T20:07:13.076Z,46.51
2022-07-25T20:09:24.010Z,46.43
2022-07-25T20:11:32.343Z,46.51
2022-07-25T20:13:40.281Z,46.51
2022-07-25T20:15:48.263Z,46.20
2022-07-25T20:17:57.317Z,46.12
2022-07-25T20:20:07.813Z,46.29
2022-07-25T20:22:15.721Z,46.18
2022-07-25T20:24:27.391Z,46.47
2022-07-25T20:26:36.868Z,46.89
2022-07-25T20:28:47.117Z,47.12
2022-07-25T20:30:56.224Z,46.94
2022-07-25T20:33:08.002Z,47.60
2022-07-25T20:35:18.432Z,47.17
2022-07-25T20:37:26.426Z,47.56
2022-07-25T20:39:39.933Z,48.07
2022-07-25T20:41:47.965Z,48.13
2022-07-25T20:43:58.069Z,48.26
2022-07-25T20:46:09.265Z,48.58
2022-07-25T20:48:19.691Z,48.99
2022-07-25T20:50:29.178Z,48.22
2022-07-25T20:52:37.084Z,48.29
2022-07-25T20:55:00.053Z,48.41
2022-07-25T20:57:11.630Z,49.18
2022-07-25T20:59:20.045Z,49.41
2022-07-25T21:01:29.815Z,49.43
2022-07-25T21:03:38.996Z,49.70
2022-07-25T21:05:46.958Z,49.49
2022-07-25T21:07:55.340Z,50.02
2022-07-25T21:10:05.891Z,49.84
2022-07-25T21:12:14.089Z,50.19
2022-07-25T21:14:21.967Z,49.80
2022-07-25T21:16:35.047Z,50.02
2022-07-25T21:18:44.070Z,50.02
2022-07-25T21:20:53.399Z,50.20
2022-07-25T21:23:01.805Z,50.08
2022-07-25T21:25:14.786Z,49.63
2022-07-25T21:27:23.749Z,49.55
2022-07-25T21:29:31.820Z,49.54
2022-07-25T21:31:40.318Z,50.13
2022-07-25T21:33:49.457Z,49.87
2022-07-25T21:35:57.630Z,50.31
2022-07-25T21:38:06.227Z,50.39
2022-07-25T21:40:17.326Z,50.35
2022-07-25T21:42:25.556Z,50.49
2022-07-25T21:44:34.589Z,50.59
2022-07-25T21:46:45.159Z,50.46
2022-07-25T21:49:05.546Z,50.50
2022-07-25T21:51:22.924Z,49.81
2022-07-25T21:53:32.051Z,50.41
2022-07-25T21:55:44.325Z,50.23
2022-07-25T21:57:52.561Z,50.40
2022-07-25T22:00:00.758Z,49.42
2022-07-25T22:02:09.101Z,50.30
2022-07-25T22:04:18.107Z,50.70
2022-07-25T22:06:26.467Z,50.23
2022-07-25T22:08:36.765Z,50.90
2022-07-25T22:10:47.941Z,50.69
2022-07-25T22:12:56.781Z,50.57
2022-07-25T22:15:05.063Z,50.57
2022-07-25T22:17:13.777Z,50.29
2022-07-25T22:19:22.611Z,50.34
2022-07-25T22:21:31.065Z,50.74
2022-07-25T22:23:39.036Z,50.45
2022-07-25T22:25:50.190Z,50.42
2022-07-25T22:27:58.544Z,50.79
2022-07-25T22:30:08.673Z,51.21
2022-07-25T22:32:17.129Z,50.81
2022-07-25T22:34:25.356Z,50.81
2022-07-25T22:36:33.781Z,51.66
2022-07-25T22:38:43.282Z,51.09
2022-07-25T22:40:55.245Z,51.97
2022-07-25T22:43:03.539Z,51.52
2022-07-25T22:45:13.103Z,51.73
2022-07-25T22:47:21.071Z,51.47
2022-07-25T22:49:29.200Z,51.74
2022-07-25T22:51:37.589Z,51.87
2022-07-25T22:53:46.251Z,52.10
2022-07-25T22:55:57.258Z,52.30
2022-07-25T22:58:05.581Z,52.73
2022-07-25T23:00:17.172Z,52.65
2022-07-25T23:02:27.795Z,52.87
2022-07-25T23:04:36.021Z,52.94
2022-07-25T23:06:44.042Z,53.23
2022-07-25T23:08:53.177Z,53.30
2022-07-25T23:11:06.168Z,53.67
2022-07-25T23:13:14.599Z,53.38
2022-07-25T23:15:22.870Z,54.66
2022-07-25T23:17:34.889Z,53.35
2022-07-25T23:19:43.582Z,53.73
2022-07-25T23:21:51.781Z,53.66
2022-07-25T23:24:00.522Z,54.23
2022-07-25T23:26:11.206Z,52.91
2022-07-25T23:28:19.919Z,53.62
2022-07-25T23:30:27.872Z,54.39
2022-07-25T23:32:37.066Z,54.79
2022-07-25T23:34:46.822Z,54.44
2022-07-25T23:36:54.946Z,54.89
2022-07-25T23:39:03.297Z,54.86
2022-07-25T23:41:14.736Z,55.39
2022-07-25T23:43:56.413Z,55.41
2022-07-25T23:45:51.146Z,55.86
2022-07-25T23:47:59.808Z,55.49
2022-07-25T23:50:09.788Z,55.57
2022-07-25T23:52:18.222Z,56.06
2022-07-25T23:54:26.714Z,55.86
2022-07-25T23:56:37.246Z,56.15
2022-07-25T23:58:46.268Z,56.47
